Terminal Aerodrome Forecast
Issued by NWS

Home | Current Version | Previous Version | Text Only | Print | Product List | Glossary On
Versions: 1 2 3 4 5 6 7 8 9 10 11 12 13 14 15 16 17 18 19
000
FTUS41 KPBZ 291100
TAFFKL
TAF
KFKL 291129Z 2912/3012 13008KT P6SM BKN080
     FM291700 17011G18KT 3SM -FZRASN BR OVC020
     FM291900 18013G20KT 2SM -SHRASN BR OVC008
     FM300200 26012G22KT 2SM -SHSN OVC008
     FM300600 29013G23KT 2SM -SHSN OVC004
      AMD LTD TO CLD VIS AND WIND=

USA.gov is the U.S. government's official web portal to all federal, state and local government web resources and services.